createdAt,value
2018-01-28T00:01:02.665Z,6.00
2018-01-28T00:03:29.012Z,6.00
2018-01-28T00:05:55.305Z,6.00
2018-01-28T00:08:21.613Z,6.00
2018-01-28T00:10:48.015Z,6.00
2018-01-28T00:13:14.383Z,6.00
2018-01-28T00:15:41.539Z,6.10
2018-01-28T00:18:08.587Z,6.10
2018-01-28T00:20:35.622Z,6.20
2018-01-28T00:23:01.988Z,6.20
2018-01-28T00:25:28.316Z,6.20
2018-01-28T00:27:54.708Z,6.20
2018-01-28T00:30:21.014Z,6.20
2018-01-28T00:32:47.367Z,6.20
2018-01-28T00:35:13.688Z,6.30
2018-01-28T00:37:40.064Z,6.30
2018-01-28T00:40:06.385Z,6.30
2018-01-28T00:42:33.444Z,6.30
2018-01-28T00:44:59.778Z,6.30
2018-01-28T00:47:26.169Z,6.30
2018-01-28T00:49:52.471Z,6.30
2018-01-28T00:52:18.763Z,6.40
2018-01-28T00:54:45.788Z,6.40
2018-01-28T00:57:12.856Z,6.30
2018-01-28T00:59:39.896Z,6.20
2018-01-28T01:02:07.004Z,6.20
2018-01-28T01:04:33.305Z,6.20
2018-01-28T01:06:59.676Z,6.20
2018-01-28T01:09:26.000Z,6.30
2018-01-28T01:11:52.379Z,6.30
2018-01-28T01:14:18.684Z,6.30
2018-01-28T01:16:45.772Z,6.30
2018-01-28T01:19:12.092Z,6.30
2018-01-28T01:21:38.452Z,6.30
2018-01-28T01:24:04.819Z,6.30
2018-01-28T01:26:31.140Z,6.20
2018-01-28T01:28:57.508Z,5.90
2018-01-28T01:31:23.857Z,5.70
2018-01-28T01:33:50.196Z,5.70
2018-01-28T01:36:16.480Z,5.60
2018-01-28T01:38:42.800Z,5.60
2018-01-28T01:41:10.636Z,5.60
2018-01-28T01:43:37.012Z,5.50
2018-01-28T01:46:04.019Z,5.60
2018-01-28T01:48:30.424Z,5.60
2018-01-28T01:50:56.748Z,5.60
2018-01-28T01:53:23.108Z,5.60
2018-01-28T01:55:49.418Z,5.50
2018-01-28T01:58:15.796Z,5.50
2018-01-28T02:00:42.144Z,5.50
2018-01-28T02:03:09.200Z,5.50
2018-01-28T02:05:36.260Z,5.40
2018-01-28T02:08:02.611Z,5.40
2018-01-28T02:10:28.964Z,5.40
2018-01-28T02:12:55.300Z,5.40
2018-01-28T02:15:21.616Z,5.30
2018-01-28T02:17:47.980Z,5.30
2018-01-28T02:20:14.336Z,5.30
2018-01-28T02:22:41.396Z,5.30
2018-01-28T02:25:07.699Z,5.30
2018-01-28T02:27:33.983Z,5.30
2018-01-28T02:30:00.304Z,5.30
2018-01-28T02:32:26.684Z,5.30
2018-01-28T02:34:53.050Z,5.40
2018-01-28T02:37:19.364Z,5.40
2018-01-28T02:39:46.405Z,5.40
2018-01-28T02:42:13.507Z,5.40
2018-01-28T02:44:39.818Z,5.40
2018-01-28T02:47:06.175Z,5.40
2018-01-28T02:49:32.496Z,5.40
2018-01-28T02:51:58.868Z,5.40
2018-01-28T02:54:25.176Z,5.40
2018-01-28T02:56:51.557Z,5.50
2018-01-28T02:59:17.877Z,5.50
2018-01-28T03:01:44.948Z,5.50
2018-01-28T03:04:11.300Z,5.50
2018-01-28T03:06:37.676Z,5.50
2018-01-28T03:09:04.016Z,5.50
2018-01-28T03:11:31.040Z,5.60
2018-01-28T03:13:57.391Z,5.60
2018-01-28T03:16:24.464Z,5.60
2018-01-28T03:18:50.787Z,5.60
2018-01-28T03:21:17.083Z,5.60
2018-01-28T03:23:43.371Z,5.60
2018-01-28T03:26:09.748Z,5.60
2018-01-28T03:28:36.055Z,5.60
2018-01-28T03:31:02.381Z,5.50
2018-01-28T03:33:28.779Z,5.60
2018-01-28T03:35:55.147Z,5.60
2018-01-28T03:38:21.475Z,5.60
2018-01-28T03:40:47.804Z,5.60
2018-01-28T03:43:14.128Z,5.60
2018-01-28T03:45:40.492Z,5.60
2018-01-28T03:48:06.818Z,5.60
2018-01-28T03:50:33.187Z,5.60
2018-01-28T03:52:59.523Z,5.60
2018-01-28T03:55:25.882Z,5.70
2018-01-28T03:57:52.207Z,5.60
2018-01-28T04:00:18.572Z,5.70
2018-01-28T04:02:44.892Z,5.60
2018-01-28T04:05:11.253Z,5.60
2018-01-28T04:07:38.296Z,5.70
2018-01-28T04:10:05.388Z,5.70
2018-01-28T04:12:31.668Z,5.70
2018-01-28T04:14:58.012Z,5.70
2018-01-28T04:17:25.111Z,5.70
2018-01-28T04:19:51.487Z,5.70
2018-01-28T04:22:17.800Z,5.80
2018-01-28T04:24:44.175Z,5.80
2018-01-28T04:27:10.497Z,5.80
2018-01-28T04:29:37.879Z,5.90
2018-01-28T04:32:04.248Z,5.90
2018-01-28T04:34:30.679Z,5.90
2018-01-28T04:36:56.943Z,5.90
2018-01-28T04:39:23.280Z,5.90
2018-01-28T04:41:49.587Z,6.00
2018-01-28T04:44:16.663Z,6.00
2018-01-28T04:46:42.915Z,6.00
2018-01-28T04:49:09.255Z,6.00
2018-01-28T04:51:36.288Z,6.00
2018-01-28T04:54:02.637Z,6.00
2018-01-28T04:56:28.936Z,6.10
2018-01-28T04:58:55.722Z,6.10
2018-01-28T05:01:25.103Z,6.10
2018-01-28T05:03:51.431Z,6.10
2018-01-28T05:06:17.708Z,6.10
2018-01-28T05:09:03.692Z,6.20
2018-01-28T05:11:30.024Z,6.20
2018-01-28T05:13:56.424Z,6.20
2018-01-28T05:16:22.727Z,6.20
2018-01-28T05:18:49.084Z,6.20
2018-01-28T05:21:15.420Z,6.30
2018-01-28T05:23:41.755Z,6.30
2018-01-28T05:26:08.114Z,6.30
2018-01-28T05:28:34.453Z,6.40
2018-01-28T05:31:01.476Z,6.40
2018-01-28T05:33:27.846Z,6.40
2018-01-28T05:35:54.877Z,6.50
2018-01-28T05:38:21.972Z,6.50
2018-01-28T05:40:48.311Z,6.50
2018-01-28T05:43:14.665Z,6.60
2018-01-28T05:45:40.996Z,6.60
2018-01-28T05:48:07.341Z,6.60
2018-01-28T05:50:33.635Z,6.60
2018-01-28T05:53:00.036Z,6.60
2018-01-28T05:55:26.380Z,6.60
2018-01-28T05:57:52.730Z,6.60
2018-01-28T06:00:19.029Z,6.70
2018-01-28T06:02:45.423Z,6.70
2018-01-28T06:05:12.600Z,6.70
2018-01-28T06:07:38.888Z,6.70
2018-01-28T06:10:05.171Z,6.70
2018-01-28T06:12:31.488Z,6.70
2018-01-28T06:14:58.584Z,6.80
2018-01-28T06:17:24.897Z,6.80
2018-01-28T06:19:51.266Z,6.80
2018-01-28T06:22:17.705Z,6.90
2018-01-28T06:24:44.035Z,6.90
2018-01-28T06:27:10.417Z,6.90
2018-01-28T06:29:36.757Z,7.00
2018-01-28T06:32:03.090Z,6.90
2018-01-28T06:34:29.434Z,6.90
2018-01-28T06:36:55.761Z,7.00
2018-01-28T06:39:22.116Z,7.00
2018-01-28T06:41:48.408Z,7.10
2018-01-28T06:44:14.817Z,7.00
2018-01-28T06:46:41.136Z,7.10
2018-01-28T06:49:08.206Z,7.00
2018-01-28T06:51:34.467Z,7.00
2018-01-28T06:54:00.801Z,7.00
2018-01-28T06:56:27.153Z,7.10
2018-01-28T06:58:53.496Z,7.10
2018-01-28T07:01:20.541Z,7.10
2018-01-28T07:03:47.722Z,7.20
2018-01-28T07:06:14.052Z,7.20
2018-01-28T07:08:40.412Z,7.20
2018-01-28T07:11:06.719Z,7.20
2018-01-28T07:13:33.066Z,7.30
2018-01-28T07:15:59.415Z,7.30
2018-01-28T07:18:25.806Z,7.30
2018-01-28T07:20:52.132Z,7.30
2018-01-28T07:23:18.432Z,7.30
2018-01-28T07:25:44.809Z,7.30
2018-01-28T07:28:11.176Z,7.40
2018-01-28T07:30:37.490Z,7.40
2018-01-28T07:33:03.863Z,7.40
2018-01-28T07:35:30.896Z,7.40
2018-01-28T07:37:57.285Z,7.40
2018-01-28T07:40:23.618Z,7.40
2018-01-28T07:45:41.883Z,7.40
2018-01-28T07:48:08.244Z,7.50
2018-01-28T07:50:34.573Z,7.50
2018-01-28T07:53:00.937Z,7.50
2018-01-28T07:55:27.980Z,7.50
2018-01-28T07:57:55.099Z,7.50
2018-01-28T08:00:21.388Z,7.50
2018-01-28T08:02:47.760Z,7.50
2018-01-28T08:05:14.077Z,7.50
2018-01-28T08:07:41.200Z,7.40
2018-01-28T08:10:22.427Z,7.40
2018-01-28T08:12:50.793Z,7.30
2018-01-28T08:15:17.076Z,7.30
2018-01-28T08:17:43.398Z,7.30
2018-01-28T08:20:10.505Z,7.30
2018-01-28T08:22:36.886Z,7.30
2018-01-28T08:25:03.456Z,7.40
2018-01-28T08:27:30.747Z,7.40
2018-01-28T08:29:57.115Z,7.40
2018-01-28T08:32:23.455Z,7.40
2018-01-28T08:34:49.779Z,7.40
2018-01-28T08:37:16.150Z,7.50
2018-01-28T08:39:42.499Z,7.50
2018-01-28T08:42:08.826Z,7.60
2018-01-28T08:44:35.181Z,7.60
2018-01-28T08:47:02.219Z,7.60
2018-01-28T08:49:29.308Z,7.60
2018-01-28T08:51:55.631Z,7.60
2018-01-28T08:54:22.013Z,7.70
2018-01-28T08:56:48.309Z,7.70
2018-01-28T08:59:14.688Z,7.70
2018-01-28T09:04:33.592Z,7.70
2018-01-28T09:06:59.952Z,7.60
2018-01-28T09:09:26.253Z,7.60
2018-01-28T09:11:52.536Z,7.50
2018-01-28T09:14:18.844Z,7.50
2018-01-28T09:16:45.256Z,7.60
2018-01-28T09:19:11.531Z,7.60
2018-01-28T09:21:37.892Z,7.60
2018-01-28T09:24:04.940Z,7.60
2018-01-28T09:26:32.046Z,7.60
2018-01-28T09:28:58.379Z,7.60
2018-01-28T09:31:24.728Z,7.60
2018-01-28T09:33:51.052Z,7.70
2018-01-28T09:36:17.404Z,7.60
2018-01-28T09:38:44.439Z,7.50
2018-01-28T09:41:10.840Z,7.50
2018-01-28T09:43:37.284Z,7.50
2018-01-28T09:46:03.624Z,7.50
2018-01-28T09:48:30.005Z,7.50
2018-01-28T09:50:56.386Z,7.60
2018-01-28T09:53:22.748Z,7.60
2018-01-28T09:55:49.761Z,7.60
2018-01-28T09:58:16.145Z,7.60
2018-01-28T10:00:42.612Z,7.70
2018-01-28T10:03:09.639Z,7.80
2018-01-28T10:05:36.056Z,7.80
2018-01-28T10:08:02.455Z,7.80
2018-01-28T10:10:28.807Z,7.90
2018-01-28T10:12:55.840Z,8.10
2018-01-28T10:15:22.883Z,8.20
2018-01-28T10:17:49.963Z,8.30
2018-01-28T10:20:16.300Z,8.30
2018-01-28T10:22:42.664Z,8.40
2018-01-28T10:25:09.000Z,8.40
2018-01-28T10:27:35.421Z,8.60
2018-01-28T10:30:01.785Z,8.60
2018-01-28T10:32:28.177Z,8.70
2018-01-28T10:34:54.505Z,8.70
2018-01-28T10:37:20.855Z,8.80
2018-01-28T10:39:47.160Z,9.00
2018-01-28T10:42:13.525Z,9.10
2018-01-28T10:44:39.879Z,9.30
2018-01-28T10:47:06.927Z,9.30
2018-01-28T10:49:33.997Z,9.30
2018-01-28T10:52:00.345Z,9.30
2018-01-28T10:54:26.689Z,9.40
2018-01-28T10:56:53.028Z,9.30
2018-01-28T10:59:19.288Z,9.20
2018-01-28T11:01:46.340Z,9.20
2018-01-28T11:04:12.667Z,9.20
2018-01-28T11:06:39.364Z,9.20
2018-01-28T11:09:05.632Z,9.20
2018-01-28T11:11:32.040Z,9.30
2018-01-28T11:13:58.365Z,9.30
2018-01-28T11:16:24.770Z,9.30
2018-01-28T11:18:51.052Z,9.40
2018-01-28T11:21:18.260Z,9.40
2018-01-28T11:23:44.576Z,9.40
2018-01-28T11:26:10.912Z,9.40
2018-01-28T11:28:37.244Z,9.30
2018-01-28T11:31:03.600Z,9.30
2018-01-28T11:33:29.933Z,9.30
2018-01-28T11:35:56.334Z,9.30
2018-01-28T11:38:22.644Z,9.30
2018-01-28T11:40:49.716Z,9.40
2018-01-28T11:43:16.124Z,9.30
2018-01-28T11:45:43.227Z,9.40
2018-01-28T11:48:09.576Z,9.40
2018-01-28T11:50:35.945Z,9.40
2018-01-28T11:53:03.131Z,9.40
2018-01-28T11:55:29.420Z,9.30
2018-01-28T11:57:56.455Z,9.40
2018-01-28T12:00:23.508Z,9.40
2018-01-28T12:02:50.568Z,9.40
2018-01-28T12:05:16.932Z,9.40
2018-01-28T12:07:43.268Z,9.40
2018-01-28T12:10:10.672Z,9.50
2018-01-28T12:12:37.791Z,9.50
2018-01-28T12:15:04.184Z,9.50
2018-01-28T12:17:30.503Z,9.40
2018-01-28T12:19:57.069Z,9.50
2018-01-28T12:22:24.241Z,9.40
2018-01-28T12:24:51.399Z,9.40
2018-01-28T12:27:17.793Z,9.40
2018-01-28T12:29:44.157Z,9.50
2018-01-28T12:32:10.589Z,9.60
2018-01-28T12:34:36.963Z,9.60
2018-01-28T12:37:03.345Z,9.70
2018-01-28T12:39:29.640Z,9.80
2018-01-28T12:41:55.957Z,9.80
2018-01-28T12:44:22.324Z,9.90
2018-01-28T12:46:48.604Z,9.80
2018-01-28T12:49:15.636Z,9.90
2018-01-28T12:51:42.720Z,9.90
2018-01-28T12:54:08.989Z,9.80
2018-01-28T12:56:35.304Z,9.90
2018-01-28T12:59:01.625Z,10.00
2018-01-28T13:01:28.020Z,10.20
2018-01-28T13:03:55.142Z,10.10
2018-01-28T13:06:21.527Z,10.00
2018-01-28T13:08:47.819Z,10.10
2018-01-28T13:11:14.237Z,10.00
2018-01-28T13:13:40.623Z,10.10
2018-01-28T13:16:06.999Z,10.00
2018-01-28T13:18:33.264Z,10.00
2018-01-28T13:20:59.576Z,10.00
2018-01-28T13:23:40.829Z,10.00
2018-01-28T13:26:07.207Z,10.00
2018-01-28T13:28:33.569Z,10.00
2018-01-28T13:30:59.916Z,10.00
2018-01-28T13:33:26.228Z,9.90
2018-01-28T13:35:52.609Z,10.00
2018-01-28T13:38:18.930Z,9.90
2018-01-28T13:40:45.300Z,10.00
2018-01-28T13:43:11.604Z,10.00
2018-01-28T13:45:37.988Z,9.90
2018-01-28T13:48:04.311Z,10.00
2018-01-28T13:50:30.680Z,9.90
2018-01-28T13:52:57.004Z,10.00
2018-01-28T13:55:23.379Z,10.00
2018-01-28T13:57:49.688Z,10.00
2018-01-28T14:00:16.057Z,10.00
2018-01-28T14:02:42.400Z,10.00
2018-01-28T14:05:08.687Z,10.00
2018-01-28T14:07:35.778Z,10.10
2018-01-28T14:10:02.172Z,10.00
2018-01-28T14:12:29.295Z,10.10
2018-01-28T14:14:55.654Z,10.00
2018-01-28T14:17:22.703Z,10.00
2018-01-28T14:19:49.736Z,10.00
2018-01-28T14:22:16.124Z,10.00
2018-01-28T14:24:42.832Z,10.00
2018-01-28T14:27:09.192Z,10.10
2018-01-28T14:29:35.573Z,10.10
2018-01-28T14:32:02.601Z,10.20
2018-01-28T14:34:28.978Z,10.10
2018-01-28T14:36:55.315Z,10.20
2018-01-28T14:39:21.668Z,10.20
2018-01-28T14:41:48.311Z,10.10
2018-01-28T14:44:14.631Z,10.20
2018-01-28T14:46:41.015Z,10.10
2018-01-28T14:49:08.070Z,10.10
2018-01-28T14:51:35.124Z,10.10
2018-01-28T14:54:01.504Z,10.10
2018-01-28T14:56:27.847Z,10.10
2018-01-28T14:58:54.139Z,10.10
2018-01-28T15:01:20.495Z,10.10
2018-01-28T15:03:47.208Z,10.10
2018-01-28T15:06:13.500Z,10.00
2018-01-28T15:08:39.824Z,9.90
2018-01-28T15:11:06.184Z,9.90
2018-01-28T15:13:32.519Z,10.00
2018-01-28T15:15:59.656Z,10.00
2018-01-28T15:18:25.922Z,10.00
2018-01-28T15:20:52.323Z,10.00
2018-01-28T15:23:19.432Z,10.00
2018-01-28T15:25:45.808Z,10.00
2018-01-28T15:28:12.075Z,10.00
2018-01-28T15:30:38.387Z,10.00
2018-01-28T15:33:04.716Z,10.00
2018-01-28T15:35:31.064Z,10.00
2018-01-28T15:37:57.423Z,9.90
2018-01-28T15:40:23.716Z,9.90
2018-01-28T15:42:50.117Z,10.00
2018-01-28T15:45:17.221Z,10.00
2018-01-28T15:47:43.507Z,9.90
2018-01-28T15:50:09.892Z,9.90
2018-01-28T15:52:36.183Z,9.90
2018-01-28T15:55:02.612Z,9.90
2018-01-28T15:57:28.991Z,9.90
2018-01-28T15:59:55.347Z,9.90
2018-01-28T16:02:22.415Z,9.80
2018-01-28T16:04:48.793Z,9.80
2018-01-28T16:07:15.104Z,9.80
2018-01-28T16:09:41.458Z,9.80
2018-01-28T16:12:07.769Z,9.80
2018-01-28T16:14:34.153Z,9.80
2018-01-28T16:17:01.183Z,9.70
2018-01-28T16:19:27.543Z,9.70
2018-01-28T16:21:53.888Z,9.60
2018-01-28T16:24:20.203Z,9.60
2018-01-28T16:26:46.567Z,9.70
2018-01-28T16:29:12.876Z,9.70
2018-01-28T16:31:39.491Z,9.80
2018-01-28T16:34:06.542Z,9.90
2018-01-28T16:36:33.572Z,9.90
2018-01-28T16:39:00.680Z,10.00
2018-01-28T16:41:26.976Z,9.90
2018-01-28T16:43:53.339Z,10.00
2018-01-28T16:46:19.681Z,10.00
2018-01-28T16:48:46.057Z,10.00
2018-01-28T16:51:13.088Z,10.10
2018-01-28T16:53:40.161Z,10.10
2018-01-28T16:56:06.429Z,10.10
2018-01-28T16:58:32.740Z,10.10
2018-01-28T17:00:59.081Z,10.20
2018-01-28T17:03:25.373Z,10.20
2018-01-28T17:05:52.475Z,10.20
2018-01-28T17:08:19.572Z,10.20
2018-01-28T17:10:46.567Z,10.20
2018-01-28T17:13:12.896Z,10.20
2018-01-28T17:15:39.200Z,10.20
2018-01-28T17:18:05.564Z,10.20
2018-01-28T17:20:31.884Z,10.20
2018-01-28T17:22:58.210Z,10.30
2018-01-28T17:25:24.520Z,10.30
2018-01-28T17:27:50.871Z,10.30
2018-01-28T17:30:17.158Z,10.30
2018-01-28T17:32:44.333Z,10.30
2018-01-28T17:35:16.742Z,10.30
2018-01-28T17:37:43.096Z,10.20
2018-01-28T17:40:09.451Z,10.30
2018-01-28T17:42:35.777Z,10.30
2018-01-28T17:45:02.913Z,10.10
2018-01-28T17:47:30.000Z,10.10
2018-01-28T17:49:56.324Z,10.00
2018-01-28T17:52:22.769Z,10.00
2018-01-28T17:54:49.101Z,9.90
2018-01-28T17:57:15.488Z,9.90
2018-01-28T17:59:42.484Z,9.80
2018-01-28T18:02:08.887Z,9.80
2018-01-28T18:04:35.262Z,9.80
2018-01-28T18:07:01.565Z,9.70
2018-01-28T18:09:27.924Z,9.60
2018-01-28T18:11:54.310Z,9.50
2018-01-28T18:14:20.704Z,9.50
2018-01-28T18:16:47.085Z,9.40
2018-01-28T18:19:13.376Z,9.40
2018-01-28T18:21:39.731Z,9.40
2018-01-28T18:24:06.769Z,9.40
2018-01-28T18:26:33.862Z,9.30
2018-01-28T18:29:01.299Z,9.30
2018-01-28T18:31:27.708Z,9.30
2018-01-28T18:33:54.852Z,9.20
2018-01-28T18:36:21.900Z,9.20
2018-01-28T18:38:48.973Z,9.20
2018-01-28T18:41:15.291Z,9.20
2018-01-28T18:43:42.363Z,9.10
2018-01-28T18:46:08.717Z,9.10
2018-01-28T18:48:35.063Z,9.10
2018-01-28T18:51:01.396Z,9.10
2018-01-28T18:53:27.777Z,9.10
2018-01-28T18:55:54.097Z,9.10
2018-01-28T18:58:20.436Z,9.10
2018-01-28T19:00:46.790Z,9.10
2018-01-28T19:03:13.120Z,9.10
2018-01-28T19:05:39.477Z,9.10
2018-01-28T19:08:05.800Z,9.10
2018-01-28T19:10:32.139Z,9.10
2018-01-28T19:12:58.527Z,9.10
2018-01-28T19:15:24.835Z,9.10
2018-01-28T19:17:51.912Z,9.20
2018-01-28T19:20:18.271Z,9.10
2018-01-28T19:22:44.603Z,9.20
2018-01-28T19:25:11.648Z,9.20
2018-01-28T19:27:38.028Z,9.20
2018-01-28T19:30:05.056Z,9.20
2018-01-28T19:32:32.144Z,9.20
2018-01-28T19:34:58.484Z,9.20
2018-01-28T19:37:24.817Z,9.20
2018-01-28T19:39:51.175Z,9.20
2018-01-28T19:42:17.439Z,9.30
2018-01-28T19:44:44.568Z,9.30
2018-01-28T19:47:10.899Z,9.30
2018-01-28T19:49:37.276Z,9.30
2018-01-28T19:52:03.755Z,9.30
2018-01-28T19:54:30.074Z,9.30
2018-01-28T19:56:56.388Z,9.30
2018-01-28T19:59:22.688Z,9.30
2018-01-28T20:01:49.010Z,9.30
2018-01-28T20:04:16.033Z,9.40
2018-01-28T20:06:42.395Z,9.30
2018-01-28T20:09:08.759Z,9.40
2018-01-28T20:11:35.082Z,9.40
2018-01-28T20:14:01.444Z,9.40
2018-01-28T20:16:27.772Z,9.40
2018-01-28T20:18:54.135Z,9.40
2018-01-28T20:21:21.164Z,9.50
2018-01-28T20:23:47.544Z,9.40
2018-01-28T20:26:13.863Z,9.50
2018-01-28T20:28:40.231Z,9.50
2018-01-28T20:31:06.489Z,9.50
2018-01-28T20:33:32.796Z,9.50
2018-01-28T20:35:59.200Z,9.60
2018-01-28T20:38:25.480Z,9.60
2018-01-28T20:40:51.848Z,9.60
2018-01-28T20:43:18.155Z,9.60
2018-01-28T20:45:45.259Z,9.60
2018-01-28T20:48:11.609Z,9.60
2018-01-28T20:50:37.939Z,9.70
2018-01-28T20:53:04.245Z,9.70
2018-01-28T20:55:31.156Z,9.70
2018-01-28T20:57:57.481Z,9.70
2018-01-28T21:00:24.500Z,9.70
2018-01-28T21:02:50.812Z,9.70
2018-01-28T21:05:17.115Z,9.70
2018-01-28T21:07:43.504Z,9.70
2018-01-28T21:10:09.824Z,9.70
2018-01-28T21:12:36.479Z,9.70
2018-01-28T21:15:03.556Z,9.70
2018-01-28T21:17:29.917Z,9.70
2018-01-28T21:19:56.245Z,9.70
2018-01-28T21:22:22.611Z,9.70
2018-01-28T21:24:49.464Z,9.70
2018-01-28T21:27:16.541Z,9.80
2018-01-28T21:29:42.904Z,9.70
2018-01-28T21:32:09.280Z,9.80
2018-01-28T21:34:36.370Z,9.80
2018-01-28T21:37:02.684Z,9.80
2018-01-28T21:39:29.079Z,9.80
2018-01-28T21:41:55.364Z,9.70
2018-01-28T21:44:21.747Z,9.80
2018-01-28T21:46:48.777Z,9.80
2018-01-28T21:49:15.892Z,9.80
2018-01-28T21:51:42.226Z,9.80
2018-01-28T21:54:08.864Z,9.80
2018-01-28T21:56:35.188Z,9.80
2018-01-28T21:59:01.568Z,9.80
2018-01-28T22:01:28.013Z,9.80
2018-01-28T22:03:54.324Z,9.80
2018-01-28T22:06:20.692Z,9.80
2018-01-28T22:08:47.040Z,9.80
2018-01-28T22:11:13.428Z,9.80
2018-01-28T22:13:39.800Z,9.70
2018-01-28T22:16:06.256Z,9.70
2018-01-28T22:18:32.615Z,9.70
2018-01-28T22:20:59.684Z,9.70
2018-01-28T22:23:26.719Z,9.70
2018-01-28T22:25:53.036Z,9.70
2018-01-28T22:28:19.415Z,9.70
2018-01-28T22:30:45.764Z,9.70
2018-01-28T22:33:12.155Z,9.70
2018-01-28T22:35:39.159Z,9.70
2018-01-28T22:38:05.570Z,9.70
2018-01-28T22:40:31.852Z,9.70
2018-01-28T22:42:59.144Z,9.70
2018-01-28T22:45:25.420Z,9.70
2018-01-28T22:47:51.767Z,9.70
2018-01-28T22:50:18.875Z,9.70
2018-01-28T22:52:45.276Z,9.70
2018-01-28T22:55:11.573Z,9.70
2018-01-28T22:57:37.844Z,9.70
2018-01-28T23:00:04.209Z,9.70
2018-01-28T23:02:31.636Z,9.70
2018-01-28T23:04:57.999Z,9.70
2018-01-28T23:07:24.268Z,9.70
2018-01-28T23:09:51.405Z,9.70
2018-01-28T23:12:18.560Z,9.80
2018-01-28T23:14:45.644Z,9.80
2018-01-28T23:17:12.772Z,9.80
2018-01-28T23:19:39.852Z,9.70
2018-01-28T23:22:06.164Z,9.70
2018-01-28T23:24:32.560Z,9.80
2018-01-28T23:26:58.863Z,9.80
2018-01-28T23:29:25.924Z,9.80
2018-01-28T23:31:52.299Z,9.70
2018-01-28T23:34:18.836Z,9.80
2018-01-28T23:36:45.240Z,9.80
2018-01-28T23:39:11.536Z,9.80
2018-01-28T23:41:37.875Z,9.80
2018-01-28T23:44:04.948Z,9.80
2018-01-28T23:46:31.292Z,9.80
2018-01-28T23:48:58.360Z,9.80
2018-01-28T23:51:24.652Z,9.80
2018-01-28T23:53:51.016Z,9.80
2018-01-28T23:56:17.456Z,9.80
2018-01-28T23:58:43.801Z,9.80
